sensor_id;sensor_type;location;lat;lon;timestamp;temperature;humidity
25732;DHT22;13585;50.864;4.406;2022-09-29T00:02:16;20.70;60.10
25732;DHT22;13585;50.864;4.406;2022-09-29T00:04:42;20.70;60.00
25732;DHT22;13585;50.864;4.406;2022-09-29T00:07:07;20.70;60.00
25732;DHT22;13585;50.864;4.406;2022-09-29T00:09:33;20.70;60.00
25732;DHT22;13585;50.864;4.406;2022-09-29T00:11:59;20.70;60.00
25732;DHT22;13585;50.864;4.406;2022-09-29T00:14:25;20.70;60.00
25732;DHT22;13585;50.864;4.406;2022-09-29T00:16:52;20.70;59.90
25732;DHT22;13585;50.864;4.406;2022-09-29T00:19:18;20.70;60.00
25732;DHT22;13585;50.864;4.406;2022-09-29T00:21:44;20.70;59.90
25732;DHT22;13585;50.864;4.406;2022-09-29T00:24:11;20.70;59.90
25732;DHT22;13585;50.864;4.406;2022-09-29T00:26:37;20.70;59.90
25732;DHT22;13585;50.864;4.406;2022-09-29T00:29:03;20.70;60.50
25732;DHT22;13585;50.864;4.406;2022-09-29T00:31:31;20.70;59.80
25732;DHT22;13585;50.864;4.406;2022-09-29T00:34:06;20.70;59.80
25732;DHT22;13585;50.864;4.406;2022-09-29T00:36:32;20.60;59.90
25732;DHT22;13585;50.864;4.406;2022-09-29T00:38:58;20.70;59.80
25732;DHT22;13585;50.864;4.406;2022-09-29T00:41:29;20.70;59.80
25732;DHT22;13585;50.864;4.406;2022-09-29T00:46:37;20.70;59.70
25732;DHT22;13585;50.864;4.406;2022-09-29T00:49:17;20.70;59.70
25732;DHT22;13585;50.864;4.406;2022-09-29T00:51:53;20.70;59.60
25732;DHT22;13585;50.864;4.406;2022-09-29T00:54:19;20.70;59.60
25732;DHT22;13585;50.864;4.406;2022-09-29T00:56:46;20.70;59.60
25732;DHT22;13585;50.864;4.406;2022-09-29T00:59:18;20.60;59.60
25732;DHT22;13585;50.864;4.406;2022-09-29T01:01:47;20.70;59.60
25732;DHT22;13585;50.864;4.406;2022-09-29T01:04:16;20.70;59.60
25732;DHT22;13585;50.864;4.406;2022-09-29T01:06:49;20.60;59.50
25732;DHT22;13585;50.864;4.406;2022-09-29T01:09:22;20.60;59.50
25732;DHT22;13585;50.864;4.406;2022-09-29T01:11:49;20.60;59.50
25732;DHT22;13585;50.864;4.406;2022-09-29T01:14:20;20.70;59.50
25732;DHT22;13585;50.864;4.406;2022-09-29T01:16:46;20.60;59.50
25732;DHT22;13585;50.864;4.406;2022-09-29T01:19:18;20.60;59.50
25732;DHT22;13585;50.864;4.406;2022-09-29T01:21:51;20.60;59.40
25732;DHT22;13585;50.864;4.406;2022-09-29T01:27:04;20.60;59.40
25732;DHT22;13585;50.864;4.406;2022-09-29T01:30:07;20.70;59.40
25732;DHT22;13585;50.864;4.406;2022-09-29T01:32:50;20.60;59.40
25732;DHT22;13585;50.864;4.406;2022-09-29T01:41:10;20.60;59.40
25732;DHT22;13585;50.864;4.406;2022-09-29T01:46:43;20.60;59.30
25732;DHT22;13585;50.864;4.406;2022-09-29T01:49:11;20.60;59.30
25732;DHT22;13585;50.864;4.406;2022-09-29T01:51:42;20.60;59.20
25732;DHT22;13585;50.864;4.406;2022-09-29T01:54:16;20.60;59.30
25732;DHT22;13585;50.864;4.406;2022-09-29T01:56:48;20.60;59.30
25732;DHT22;13585;50.864;4.406;2022-09-29T01:59:44;20.60;59.20
25732;DHT22;13585;50.864;4.406;2022-09-29T02:02:16;20.60;59.20
25732;DHT22;13585;50.864;4.406;2022-09-29T02:04:52;20.60;59.10
25732;DHT22;13585;50.864;4.406;2022-09-29T02:07:23;20.60;59.10
25732;DHT22;13585;50.864;4.406;2022-09-29T02:10:00;20.60;59.10
25732;DHT22;13585;50.864;4.406;2022-09-29T02:12:28;20.60;59.10
25732;DHT22;13585;50.864;4.406;2022-09-29T02:14:55;20.60;59.00
25732;DHT22;13585;50.864;4.406;2022-09-29T02:17:29;20.60;59.10
25732;DHT22;13585;50.864;4.406;2022-09-29T02:19:57;20.60;59.10
25732;DHT22;13585;50.864;4.406;2022-09-29T02:22:23;20.60;59.00
25732;DHT22;13585;50.864;4.406;2022-09-29T02:24:53;20.60;59.00
25732;DHT22;13585;50.864;4.406;2022-09-29T02:27:21;20.60;59.00
25732;DHT22;13585;50.864;4.406;2022-09-29T02:29:47;20.60;59.00
25732;DHT22;13585;50.864;4.406;2022-09-29T02:32:13;20.60;59.00
25732;DHT22;13585;50.864;4.406;2022-09-29T02:34:49;20.60;59.00
25732;DHT22;13585;50.864;4.406;2022-09-29T02:37:20;20.60;59.00
25732;DHT22;13585;50.864;4.406;2022-09-29T02:59:16;20.60;58.80
25732;DHT22;13585;50.864;4.406;2022-09-29T03:01:51;20.50;58.80
25732;DHT22;13585;50.864;4.406;2022-09-29T03:04:23;20.50;58.80
25732;DHT22;13585;50.864;4.406;2022-09-29T03:06:50;20.50;58.70
25732;DHT22;13585;50.864;4.406;2022-09-29T03:09:17;20.50;58.70
25732;DHT22;13585;50.864;4.406;2022-09-29T03:11:43;20.50;58.70
25732;DHT22;13585;50.864;4.406;2022-09-29T03:14:09;20.50;58.70
25732;DHT22;13585;50.864;4.406;2022-09-29T03:16:35;20.60;58.80
25732;DHT22;13585;50.864;4.406;2022-09-29T03:19:02;20.50;58.70
25732;DHT22;13585;50.864;4.406;2022-09-29T03:21:29;20.50;58.60
25732;DHT22;13585;50.864;4.406;2022-09-29T03:23:54;20.50;58.70
25732;DHT22;13585;50.864;4.406;2022-09-29T03:26:20;20.50;58.60
25732;DHT22;13585;50.864;4.406;2022-09-29T03:28:49;20.50;58.60
25732;DHT22;13585;50.864;4.406;2022-09-29T03:31:14;20.60;58.60
25732;DHT22;13585;50.864;4.406;2022-09-29T03:33:40;20.60;58.60
25732;DHT22;13585;50.864;4.406;2022-09-29T03:36:06;20.50;58.50
25732;DHT22;13585;50.864;4.406;2022-09-29T03:38:37;20.50;58.50
25732;DHT22;13585;50.864;4.406;2022-09-29T03:41:04;20.50;58.50
25732;DHT22;13585;50.864;4.406;2022-09-29T03:43:30;20.50;58.50
25732;DHT22;13585;50.864;4.406;2022-09-29T03:45:56;20.50;58.50
25732;DHT22;13585;50.864;4.406;2022-09-29T03:48:22;20.50;58.50
25732;DHT22;13585;50.864;4.406;2022-09-29T03:50:50;20.50;58.40
25732;DHT22;13585;50.864;4.406;2022-09-29T03:53:17;20.50;58.40
25732;DHT22;13585;50.864;4.406;2022-09-29T03:55:46;20.50;58.40
25732;DHT22;13585;50.864;4.406;2022-09-29T03:58:12;20.50;58.50
25732;DHT22;13585;50.864;4.406;2022-09-29T04:00:38;20.50;58.40
25732;DHT22;13585;50.864;4.406;2022-09-29T04:03:04;20.50;58.40
25732;DHT22;13585;50.864;4.406;2022-09-29T04:05:30;20.50;58.40
25732;DHT22;13585;50.864;4.406;2022-09-29T04:07:56;20.50;58.30
25732;DHT22;13585;50.864;4.406;2022-09-29T04:10:22;20.40;58.30
25732;DHT22;13585;50.864;4.406;2022-09-29T04:12:47;20.50;58.30
25732;DHT22;13585;50.864;4.406;2022-09-29T04:15:13;20.50;58.40
25732;DHT22;13585;50.864;4.406;2022-09-29T04:17:39;20.50;58.30
25732;DHT22;13585;50.864;4.406;2022-09-29T04:20:05;20.50;58.30
25732;DHT22;13585;50.864;4.406;2022-09-29T04:22:32;20.50;58.40
25732;DHT22;13585;50.864;4.406;2022-09-29T04:24:58;20.50;58.20
25732;DHT22;13585;50.864;4.406;2022-09-29T04:27:24;20.50;58.20
25732;DHT22;13585;50.864;4.406;2022-09-29T04:29:50;20.50;58.20
25732;DHT22;13585;50.864;4.406;2022-09-29T04:32:15;20.40;58.10
25732;DHT22;13585;50.864;4.406;2022-09-29T04:34:41;20.50;58.20
25732;DHT22;13585;50.864;4.406;2022-09-29T04:37:09;20.50;58.20
25732;DHT22;13585;50.864;4.406;2022-09-29T04:39:37;20.40;58.10
25732;DHT22;13585;50.864;4.406;2022-09-29T04:42:03;20.50;58.10
25732;DHT22;13585;50.864;4.406;2022-09-29T04:44:29;20.50;58.10
25732;DHT22;13585;50.864;4.406;2022-09-29T04:46:55;20.50;58.10
25732;DHT22;13585;50.864;4.406;2022-09-29T04:49:27;20.40;58.00
25732;DHT22;13585;50.864;4.406;2022-09-29T04:51:53;20.40;58.10
25732;DHT22;13585;50.864;4.406;2022-09-29T04:54:18;20.40;58.00
25732;DHT22;13585;50.864;4.406;2022-09-29T04:56:47;20.40;58.00
25732;DHT22;13585;50.864;4.406;2022-09-29T04:59:13;20.40;58.00
25732;DHT22;13585;50.864;4.406;2022-09-29T05:01:39;20.50;58.00
25732;DHT22;13585;50.864;4.406;2022-09-29T05:04:05;20.40;58.00
25732;DHT22;13585;50.864;4.406;2022-09-29T05:06:32;20.40;57.90
25732;DHT22;13585;50.864;4.406;2022-09-29T05:08:58;20.50;57.90
25732;DHT22;13585;50.864;4.406;2022-09-29T05:11:24;20.40;57.90
25732;DHT22;13585;50.864;4.406;2022-09-29T05:13:50;20.40;58.00
25732;DHT22;13585;50.864;4.406;2022-09-29T05:16:16;20.40;57.90
25732;DHT22;13585;50.864;4.406;2022-09-29T05:18:42;20.40;58.00
25732;DHT22;13585;50.864;4.406;2022-09-29T05:21:08;20.40;58.00
25732;DHT22;13585;50.864;4.406;2022-09-29T05:23:35;20.40;58.00
25732;DHT22;13585;50.864;4.406;2022-09-29T05:26:04;20.40;58.00
25732;DHT22;13585;50.864;4.406;2022-09-29T05:28:30;20.40;58.00
25732;DHT22;13585;50.864;4.406;2022-09-29T05:31:01;20.40;58.10
25732;DHT22;13585;50.864;4.406;2022-09-29T05:33:27;20.40;58.10
25732;DHT22;13585;50.864;4.406;2022-09-29T05:35:53;20.40;58.10
25732;DHT22;13585;50.864;4.406;2022-09-29T05:38:19;20.40;58.10
25732;DHT22;13585;50.864;4.406;2022-09-29T05:40:45;20.40;58.10
25732;DHT22;13585;50.864;4.406;2022-09-29T05:43:11;20.40;58.20
25732;DHT22;13585;50.864;4.406;2022-09-29T05:45:37;20.40;58.20
25732;DHT22;13585;50.864;4.406;2022-09-29T05:48:03;20.30;58.20
25732;DHT22;13585;50.864;4.406;2022-09-29T05:50:29;20.40;58.30
25732;DHT22;13585;50.864;4.406;2022-09-29T05:52:55;20.30;58.20
25732;DHT22;13585;50.864;4.406;2022-09-29T05:55:56;20.40;58.20
25732;DHT22;13585;50.864;4.406;2022-09-29T05:58:26;20.40;58.30
25732;DHT22;13585;50.864;4.406;2022-09-29T06:00:52;20.40;58.20
25732;DHT22;13585;50.864;4.406;2022-09-29T06:03:20;20.40;58.10
25732;DHT22;13585;50.864;4.406;2022-09-29T06:05:45;20.40;58.20
25732;DHT22;13585;50.864;4.406;2022-09-29T06:08:11;20.40;58.20
25732;DHT22;13585;50.864;4.406;2022-09-29T06:10:37;20.40;58.20
25732;DHT22;13585;50.864;4.406;2022-09-29T06:13:03;20.40;58.20
25732;DHT22;13585;50.864;4.406;2022-09-29T06:15:29;20.40;58.20
25732;DHT22;13585;50.864;4.406;2022-09-29T06:17:58;20.30;58.20
25732;DHT22;13585;50.864;4.406;2022-09-29T06:20:24;20.30;58.20
25732;DHT22;13585;50.864;4.406;2022-09-29T06:22:54;20.30;58.10
25732;DHT22;13585;50.864;4.406;2022-09-29T06:25:19;20.30;58.10
25732;DHT22;13585;50.864;4.406;2022-09-29T06:27:45;20.30;58.10
25732;DHT22;13585;50.864;4.406;2022-09-29T06:30:12;20.40;58.10
25732;DHT22;13585;50.864;4.406;2022-09-29T06:32:39;20.30;58.00
25732;DHT22;13585;50.864;4.406;2022-09-29T06:35:05;20.40;58.10
25732;DHT22;13585;50.864;4.406;2022-09-29T06:37:52;20.40;58.00
25732;DHT22;13585;50.864;4.406;2022-09-29T06:40:20;20.40;58.00
25732;DHT22;13585;50.864;4.406;2022-09-29T06:42:47;20.40;58.00
25732;DHT22;13585;50.864;4.406;2022-09-29T06:45:14;20.30;57.90
25732;DHT22;13585;50.864;4.406;2022-09-29T06:47:40;20.30;57.90
25732;DHT22;13585;50.864;4.406;2022-09-29T06:50:06;20.30;57.90
25732;DHT22;13585;50.864;4.406;2022-09-29T06:52:32;20.30;57.80
25732;DHT22;13585;50.864;4.406;2022-09-29T06:54:58;20.30;57.80
25732;DHT22;13585;50.864;4.406;2022-09-29T06:57:23;20.30;57.80
25732;DHT22;13585;50.864;4.406;2022-09-29T06:59:51;20.30;57.80
25732;DHT22;13585;50.864;4.406;2022-09-29T07:02:17;20.30;57.80
25732;DHT22;13585;50.864;4.406;2022-09-29T07:04:43;20.30;57.70
25732;DHT22;13585;50.864;4.406;2022-09-29T07:07:09;20.30;57.70
25732;DHT22;13585;50.864;4.406;2022-09-29T07:09:35;20.30;57.70
25732;DHT22;13585;50.864;4.406;2022-09-29T07:12:00;20.30;57.60
25732;DHT22;13585;50.864;4.406;2022-09-29T07:14:26;20.30;57.60
25732;DHT22;13585;50.864;4.406;2022-09-29T07:16:52;20.30;57.60
25732;DHT22;13585;50.864;4.406;2022-09-29T07:19:19;20.30;57.50
25732;DHT22;13585;50.864;4.406;2022-09-29T07:21:45;20.30;57.50
25732;DHT22;13585;50.864;4.406;2022-09-29T07:24:11;20.30;57.50
25732;DHT22;13585;50.864;4.406;2022-09-29T07:26:37;20.30;57.50
25732;DHT22;13585;50.864;4.406;2022-09-29T07:29:03;20.30;57.50
25732;DHT22;13585;50.864;4.406;2022-09-29T07:31:29;20.30;57.50
25732;DHT22;13585;50.864;4.406;2022-09-29T07:33:55;20.30;57.50
25732;DHT22;13585;50.864;4.406;2022-09-29T07:36:21;20.30;57.40
25732;DHT22;13585;50.864;4.406;2022-09-29T07:38:48;20.30;57.40
25732;DHT22;13585;50.864;4.406;2022-09-29T07:41:15;20.30;57.30
25732;DHT22;13585;50.864;4.406;2022-09-29T07:43:40;20.30;57.30
25732;DHT22;13585;50.864;4.406;2022-09-29T07:46:07;20.30;57.40
25732;DHT22;13585;50.864;4.406;2022-09-29T07:48:34;20.30;57.30
25732;DHT22;13585;50.864;4.406;2022-09-29T07:53:34;20.30;57.30
25732;DHT22;13585;50.864;4.406;2022-09-29T07:56:05;20.30;57.20
25732;DHT22;13585;50.864;4.406;2022-09-29T07:58:32;20.30;57.20
25732;DHT22;13585;50.864;4.406;2022-09-29T08:00:59;20.20;57.10
25732;DHT22;13585;50.864;4.406;2022-09-29T08:03:26;20.30;57.20
25732;DHT22;13585;50.864;4.406;2022-09-29T08:05:52;20.30;57.20
25732;DHT22;13585;50.864;4.406;2022-09-29T08:08:18;20.30;57.10
25732;DHT22;13585;50.864;4.406;2022-09-29T08:10:44;20.30;57.10
25732;DHT22;13585;50.864;4.406;2022-09-29T08:13:10;20.30;57.10
25732;DHT22;13585;50.864;4.406;2022-09-29T08:15:36;20.30;57.10
25732;DHT22;13585;50.864;4.406;2022-09-29T08:18:02;20.30;57.10
25732;DHT22;13585;50.864;4.406;2022-09-29T08:20:28;20.30;57.10
25732;DHT22;13585;50.864;4.406;2022-09-29T08:22:54;20.30;57.00
25732;DHT22;13585;50.864;4.406;2022-09-29T08:25:21;20.30;57.00
25732;DHT22;13585;50.864;4.406;2022-09-29T08:27:51;20.20;57.00
25732;DHT22;13585;50.864;4.406;2022-09-29T08:30:17;20.30;56.90
25732;DHT22;13585;50.864;4.406;2022-09-29T08:32:43;20.30;56.90
25732;DHT22;13585;50.864;4.406;2022-09-29T08:35:09;20.30;56.90
25732;DHT22;13585;50.864;4.406;2022-09-29T08:37:35;20.30;56.90
25732;DHT22;13585;50.864;4.406;2022-09-29T08:40:01;20.30;56.90
25732;DHT22;13585;50.864;4.406;2022-09-29T08:45:17;20.30;56.80
25732;DHT22;13585;50.864;4.406;2022-09-29T08:47:48;20.30;56.80
25732;DHT22;13585;50.864;4.406;2022-09-29T08:50:29;20.30;56.80
25732;DHT22;13585;50.864;4.406;2022-09-29T08:53:04;20.20;56.80
25732;DHT22;13585;50.864;4.406;2022-09-29T08:55:41;20.30;56.70
25732;DHT22;13585;50.864;4.406;2022-09-29T08:58:11;20.30;56.70
25732;DHT22;13585;50.864;4.406;2022-09-29T09:14:51;20.30;56.70
25732;DHT22;13585;50.864;4.406;2022-09-29T09:20:31;20.30;56.70
25732;DHT22;13585;50.864;4.406;2022-09-29T09:26:00;20.30;56.70
25732;DHT22;13585;50.864;4.406;2022-09-29T09:31:19;20.30;56.80
25732;DHT22;13585;50.864;4.406;2022-09-29T09:34:17;20.30;56.80
25732;DHT22;13585;50.864;4.406;2022-09-29T09:36:51;20.30;56.90
25732;DHT22;13585;50.864;4.406;2022-09-29T09:39:27;20.30;56.80
25732;DHT22;13585;50.864;4.406;2022-09-29T09:41:56;20.30;56.80
25732;DHT22;13585;50.864;4.406;2022-09-29T09:44:33;20.30;56.90
25732;DHT22;13585;50.864;4.406;2022-09-29T09:47:22;20.30;57.00
25732;DHT22;13585;50.864;4.406;2022-09-29T09:50:14;20.30;57.00
25732;DHT22;13585;50.864;4.406;2022-09-29T09:55:21;20.30;57.00
25732;DHT22;13585;50.864;4.406;2022-09-29T10:00:35;20.30;57.10
25732;DHT22;13585;50.864;4.406;2022-09-29T10:03:07;20.30;57.10
25732;DHT22;13585;50.864;4.406;2022-09-29T10:05:40;20.30;57.20
25732;DHT22;13585;50.864;4.406;2022-09-29T10:10:51;20.30;57.40
25732;DHT22;13585;50.864;4.406;2022-09-29T10:13:37;20.30;57.40
25732;DHT22;13585;50.864;4.406;2022-09-29T10:18:45;20.40;57.50
25732;DHT22;13585;50.864;4.406;2022-09-29T10:23:58;20.30;57.60
25732;DHT22;13585;50.864;4.406;2022-09-29T10:26:41;20.40;57.70
25732;DHT22;13585;50.864;4.406;2022-09-29T10:32:08;20.40;57.90
25732;DHT22;13585;50.864;4.406;2022-09-29T10:34:40;20.30;57.90
25732;DHT22;13585;50.864;4.406;2022-09-29T10:37:37;20.30;57.90
25732;DHT22;13585;50.864;4.406;2022-09-29T10:42:38;20.40;58.00
25732;DHT22;13585;50.864;4.406;2022-09-29T10:47:46;20.40;57.90
25732;DHT22;13585;50.864;4.406;2022-09-29T10:50:19;20.40;58.00
25732;DHT22;13585;50.864;4.406;2022-09-29T10:52:54;20.40;58.10
25732;DHT22;13585;50.864;4.406;2022-09-29T10:55:25;20.40;58.20
25732;DHT22;13585;50.864;4.406;2022-09-29T10:58:50;20.40;58.20
25732;DHT22;13585;50.864;4.406;2022-09-29T11:01:13;20.40;58.30
25732;DHT22;13585;50.864;4.406;2022-09-29T11:04:11;20.40;58.20
25732;DHT22;13585;50.864;4.406;2022-09-29T11:06:36;20.40;58.30
25732;DHT22;13585;50.864;4.406;2022-09-29T11:14:30;20.40;58.40
25732;DHT22;13585;50.864;4.406;2022-09-29T11:16:58;20.40;58.50
25732;DHT22;13585;50.864;4.406;2022-09-29T11:19:25;20.50;58.50
25732;DHT22;13585;50.864;4.406;2022-09-29T11:27:50;20.50;58.60
25732;DHT22;13585;50.864;4.406;2022-09-29T11:30:24;20.50;58.70
25732;DHT22;13585;50.864;4.406;2022-09-29T11:33:22;20.50;58.60
25732;DHT22;13585;50.864;4.406;2022-09-29T11:36:06;20.50;58.70
25732;DHT22;13585;50.864;4.406;2022-09-29T11:44:57;20.50;58.80
25732;DHT22;13585;50.864;4.406;2022-09-29T11:50:09;20.50;58.90
25732;DHT22;13585;50.864;4.406;2022-09-29T11:55:40;20.50;59.00
25732;DHT22;13585;50.864;4.406;2022-09-29T12:06:48;20.50;59.10
25732;DHT22;13585;50.864;4.406;2022-09-29T12:16:59;20.50;59.10
25732;DHT22;13585;50.864;4.406;2022-09-29T12:19:29;20.50;59.10
25732;DHT22;13585;50.864;4.406;2022-09-29T12:21:59;20.50;59.00
25732;DHT22;13585;50.864;4.406;2022-09-29T12:24:41;20.50;59.00
25732;DHT22;13585;50.864;4.406;2022-09-29T12:27:35;20.40;59.00
25732;DHT22;13585;50.864;4.406;2022-09-29T12:38:33;20.40;59.00
25732;DHT22;13585;50.864;4.406;2022-09-29T12:41:10;20.50;59.10
25732;DHT22;13585;50.864;4.406;2022-09-29T12:46:21;20.40;59.00
25732;DHT22;13585;50.864;4.406;2022-09-29T12:48:51;20.40;59.00
25732;DHT22;13585;50.864;4.406;2022-09-29T12:51:34;20.50;59.00
25732;DHT22;13585;50.864;4.406;2022-09-29T12:56:38;20.50;59.00
25732;DHT22;13585;50.864;4.406;2022-09-29T13:01:55;20.50;59.00
25732;DHT22;13585;50.864;4.406;2022-09-29T13:24:24;20.50;59.00
25732;DHT22;13585;50.864;4.406;2022-09-29T13:29:30;20.50;59.00
25732;DHT22;13585;50.864;4.406;2022-09-29T13:31:57;20.50;59.00
25732;DHT22;13585;50.864;4.406;2022-09-29T13:34:28;20.50;59.00
25732;DHT22;13585;50.864;4.406;2022-09-29T13:37:10;20.50;59.10
25732;DHT22;13585;50.864;4.406;2022-09-29T13:39:40;20.40;59.00
25732;DHT22;13585;50.864;4.406;2022-09-29T13:47:49;20.50;59.10
25732;DHT22;13585;50.864;4.406;2022-09-29T13:50:44;20.50;59.00
25732;DHT22;13585;50.864;4.406;2022-09-29T13:56:08;20.50;59.10
25732;DHT22;13585;50.864;4.406;2022-09-29T14:01:29;20.50;59.10
25732;DHT22;13585;50.864;4.406;2022-09-29T14:03:56;20.40;59.00
25732;DHT22;13585;50.864;4.406;2022-09-29T14:06:25;20.50;59.00
25732;DHT22;13585;50.864;4.406;2022-09-29T14:09:14;20.50;59.00
25732;DHT22;13585;50.864;4.406;2022-09-29T14:11:50;20.40;59.00
25732;DHT22;13585;50.864;4.406;2022-09-29T14:14:40;20.50;59.10
25732;DHT22;13585;50.864;4.406;2022-09-29T14:17:28;20.40;59.00
25732;DHT22;13585;50.864;4.406;2022-09-29T14:27:46;20.40;59.00
25732;DHT22;13585;50.864;4.406;2022-09-29T14:30:44;20.40;59.00
25732;DHT22;13585;50.864;4.406;2022-09-29T14:33:29;20.40;59.00
25732;DHT22;13585;50.864;4.406;2022-09-29T14:49:45;20.50;58.90
25732;DHT22;13585;50.864;4.406;2022-09-29T14:55:35;20.50;59.00
25732;DHT22;13585;50.864;4.406;2022-09-29T15:00:55;20.50;58.90
25732;DHT22;13585;50.864;4.406;2022-09-29T15:03:30;20.50;58.90
25732;DHT22;13585;50.864;4.406;2022-09-29T15:06:14;20.40;58.90
25732;DHT22;13585;50.864;4.406;2022-09-29T15:08:42;20.40;59.00
25732;DHT22;13585;50.864;4.406;2022-09-29T15:11:25;20.50;58.90
25732;DHT22;13585;50.864;4.406;2022-09-29T15:13:57;20.40;59.00
25732;DHT22;13585;50.864;4.406;2022-09-29T15:21:36;20.50;58.90
25732;DHT22;13585;50.864;4.406;2022-09-29T15:26:46;20.40;59.00
25732;DHT22;13585;50.864;4.406;2022-09-29T15:29:15;20.50;58.90
25732;DHT22;13585;50.864;4.406;2022-09-29T15:31:44;20.40;58.90
25732;DHT22;13585;50.864;4.406;2022-09-29T15:34:20;20.40;58.90
25732;DHT22;13585;50.864;4.406;2022-09-29T15:36:52;20.40;58.90
25732;DHT22;13585;50.864;4.406;2022-09-29T15:42:21;20.40;58.90
25732;DHT22;13585;50.864;4.406;2022-09-29T15:45:21;20.40;58.80
25732;DHT22;13585;50.864;4.406;2022-09-29T15:48:00;20.40;58.90
25732;DHT22;13585;50.864;4.406;2022-09-29T15:50:28;20.50;58.80
25732;DHT22;13585;50.864;4.406;2022-09-29T15:52:57;20.50;58.80
25732;DHT22;13585;50.864;4.406;2022-09-29T15:55:28;20.50;58.80
25732;DHT22;13585;50.864;4.406;2022-09-29T15:57:55;20.50;58.80
25732;DHT22;13585;50.864;4.406;2022-09-29T16:03:15;20.50;58.80
25732;DHT22;13585;50.864;4.406;2022-09-29T16:08:24;20.40;58.80
25732;DHT22;13585;50.864;4.406;2022-09-29T16:11:13;20.50;58.70
25732;DHT22;13585;50.864;4.406;2022-09-29T16:13:41;20.40;58.70
25732;DHT22;13585;50.864;4.406;2022-09-29T16:16:11;20.50;58.70
25732;DHT22;13585;50.864;4.406;2022-09-29T16:18:41;20.40;58.70
25732;DHT22;13585;50.864;4.406;2022-09-29T16:21:18;20.40;58.70
25732;DHT22;13585;50.864;4.406;2022-09-29T16:24:02;20.40;58.80
25732;DHT22;13585;50.864;4.406;2022-09-29T16:26:38;20.40;58.80
25732;DHT22;13585;50.864;4.406;2022-09-29T16:31:42;20.40;58.70
25732;DHT22;13585;50.864;4.406;2022-09-29T16:36:56;20.40;58.80
25732;DHT22;13585;50.864;4.406;2022-09-29T16:39:49;20.40;58.70
25732;DHT22;13585;50.864;4.406;2022-09-29T16:42:32;20.40;58.60
25732;DHT22;13585;50.864;4.406;2022-09-29T16:44:57;20.40;58.70
25732;DHT22;13585;50.864;4.406;2022-09-29T16:47:26;20.50;58.60
25732;DHT22;13585;50.864;4.406;2022-09-29T16:49:55;20.40;58.60
25732;DHT22;13585;50.864;4.406;2022-09-29T16:52:44;20.40;58.70
25732;DHT22;13585;50.864;4.406;2022-09-29T17:00:19;20.40;58.70
25732;DHT22;13585;50.864;4.406;2022-09-29T17:02:50;20.40;58.70
25732;DHT22;13585;50.864;4.406;2022-09-29T17:05:16;20.40;58.70
25732;DHT22;13585;50.864;4.406;2022-09-29T17:07:42;20.40;58.80
25732;DHT22;13585;50.864;4.406;2022-09-29T17:10:17;20.40;58.80
25732;DHT22;13585;50.864;4.406;2022-09-29T17:12:44;20.40;58.90
25732;DHT22;13585;50.864;4.406;2022-09-29T17:15:13;20.50;58.90
25732;DHT22;13585;50.864;4.406;2022-09-29T17:17:39;20.40;58.90
25732;DHT22;13585;50.864;4.406;2022-09-29T17:20:12;20.40;59.00
25732;DHT22;13585;50.864;4.406;2022-09-29T17:22:41;20.40;59.00
25732;DHT22;13585;50.864;4.406;2022-09-29T17:25:11;20.40;59.00
25732;DHT22;13585;50.864;4.406;2022-09-29T17:27:37;20.40;59.00
25732;DHT22;13585;50.864;4.406;2022-09-29T17:30:23;20.40;59.00
25732;DHT22;13585;50.864;4.406;2022-09-29T17:32:52;20.40;59.00
25732;DHT22;13585;50.864;4.406;2022-09-29T17:35:33;20.40;59.00
25732;DHT22;13585;50.864;4.406;2022-09-29T17:38:03;20.40;59.00
25732;DHT22;13585;50.864;4.406;2022-09-29T17:40:35;20.40;59.00
25732;DHT22;13585;50.864;4.406;2022-09-29T17:43:02;20.40;59.00
25732;DHT22;13585;50.864;4.406;2022-09-29T17:45:29;20.40;59.00
25732;DHT22;13585;50.864;4.406;2022-09-29T17:47:55;20.40;59.00
25732;DHT22;13585;50.864;4.406;2022-09-29T17:50:34;20.40;59.00
25732;DHT22;13585;50.864;4.406;2022-09-29T17:53:06;20.40;59.10
25732;DHT22;13585;50.864;4.406;2022-09-29T17:55:34;20.40;59.00
25732;DHT22;13585;50.864;4.406;2022-09-29T17:58:00;20.40;59.00
25732;DHT22;13585;50.864;4.406;2022-09-29T18:00:34;20.40;59.10
25732;DHT22;13585;50.864;4.406;2022-09-29T18:03:06;20.40;59.10
25732;DHT22;13585;50.864;4.406;2022-09-29T18:05:35;20.40;59.10
25732;DHT22;13585;50.864;4.406;2022-09-29T18:08:03;20.40;59.00
25732;DHT22;13585;50.864;4.406;2022-09-29T18:10:37;20.40;59.10
25732;DHT22;13585;50.864;4.406;2022-09-29T18:13:04;20.40;59.10
25732;DHT22;13585;50.864;4.406;2022-09-29T18:15:32;20.40;59.10
25732;DHT22;13585;50.864;4.406;2022-09-29T18:17:59;20.50;59.10
25732;DHT22;13585;50.864;4.406;2022-09-29T18:20:27;20.40;59.10
25732;DHT22;13585;50.864;4.406;2022-09-29T18:22:54;20.40;59.10
25732;DHT22;13585;50.864;4.406;2022-09-29T18:25:23;20.40;59.10
25732;DHT22;13585;50.864;4.406;2022-09-29T18:27:50;20.40;59.10
25732;DHT22;13585;50.864;4.406;2022-09-29T18:32:49;20.40;59.20
25732;DHT22;13585;50.864;4.406;2022-09-29T18:35:18;20.40;59.20
25732;DHT22;13585;50.864;4.406;2022-09-29T18:37:44;20.40;59.10
25732;DHT22;13585;50.864;4.406;2022-09-29T18:40:10;20.40;59.20
25732;DHT22;13585;50.864;4.406;2022-09-29T18:42:44;20.40;59.20
25732;DHT22;13585;50.864;4.406;2022-09-29T18:45:15;20.40;59.30
25732;DHT22;13585;50.864;4.406;2022-09-29T18:47:52;20.40;59.20
25732;DHT22;13585;50.864;4.406;2022-09-29T18:50:24;20.40;59.20
25732;DHT22;13585;50.864;4.406;2022-09-29T18:52:51;20.40;59.20
25732;DHT22;13585;50.864;4.406;2022-09-29T18:55:19;20.40;59.20
25732;DHT22;13585;50.864;4.406;2022-09-29T18:57:46;20.40;59.20
25732;DHT22;13585;50.864;4.406;2022-09-29T19:00:14;20.40;59.20
25732;DHT22;13585;50.864;4.406;2022-09-29T19:02:41;20.40;59.20
25732;DHT22;13585;50.864;4.406;2022-09-29T19:05:09;20.40;59.20
25732;DHT22;13585;50.864;4.406;2022-09-29T19:07:35;20.40;59.30
25732;DHT22;13585;50.864;4.406;2022-09-29T19:10:01;20.40;59.30
25732;DHT22;13585;50.864;4.406;2022-09-29T19:12:27;20.40;59.30
25732;DHT22;13585;50.864;4.406;2022-09-29T19:14:55;20.40;59.30
25732;DHT22;13585;50.864;4.406;2022-09-29T19:17:23;20.40;59.30
25732;DHT22;13585;50.864;4.406;2022-09-29T19:19:49;20.40;59.30
25732;DHT22;13585;50.864;4.406;2022-09-29T19:22:16;20.40;59.30
25732;DHT22;13585;50.864;4.406;2022-09-29T19:24:42;20.40;59.30
25732;DHT22;13585;50.864;4.406;2022-09-29T19:27:07;20.40;59.30
25732;DHT22;13585;50.864;4.406;2022-09-29T19:29:36;20.40;59.30
25732;DHT22;13585;50.864;4.406;2022-09-29T19:32:02;20.40;59.30
25732;DHT22;13585;50.864;4.406;2022-09-29T19:34:31;20.40;59.30
25732;DHT22;13585;50.864;4.406;2022-09-29T19:36:57;20.40;59.30
25732;DHT22;13585;50.864;4.406;2022-09-29T19:39:22;20.40;59.30
25732;DHT22;13585;50.864;4.406;2022-09-29T19:41:50;20.40;59.30